Sarasota, FL

10:57 AM EDT on July 25, 2016 (GMT -0400)
Kensington Park | | Change Station

Elev 36 ft 27.35 °N, 82.50 °W | Updated 6 seconds ago

Clear
Clear
86.2 °F
Feels Like 93 °F
N
4.9
Wind Variable Wind from NNE
Gusts 4.9 mph

Today
High -- | Low -- °F
--% Chance of Precip.
Yesterday
High -- | Low -- °F
Precip. -- in
Pressure 30.06 in
Visibility 10.0 miles
Clouds Clear
Heat Index 93 °F
Dew Point 72 °F
Humidity 63%
Rainfall 0.00 in
Snow Depth Not available.
6:50 AM 8:22 PM
Waning Gibbous, 65% visible
METAR KSRQ 251453Z AUTO 15009KT 10SM CLR 32/22 A3006 RMK AO2 SLP179 T03170217 50004
Pressure 30.06 in
Visibility 10.0 miles
Clouds Clear
Heat Index 93 °F
Dew Point 72 °F
Humidity 63%
Rainfall 0.00 in
Snow Depth Not available.
6:50 AM 8:22 PM
Waning Gibbous, 65% visible
METAR KSRQ 251453Z AUTO 15009KT 10SM CLR 32/22 A3006 RMK AO2 SLP179 T03170217 50004

10-Day Weather Forecast

Almanac

Astronomy

Jul. 25, 2016 Rise Set
Actual Time
Civil Twilight
Nautical Twilight
Astronomical Twilight
Moon
Length of Visible Light
Length of Day
Tomorrow will be .
, % of the Moon is Illuminated

Today's Extremes

State Highs State Lows

Community

WunderPhotos

Upload Photos

1,927,305 photos uploaded!

WunderBlog® & News

Nearby

Air Quality

  Air Quality AQ Index Pollutant
Not available.

Snow Depth

Station Depth Elevation

Earthquake Activity

City Distance Mag. Time & Date
Minimum magnitude displayed is 2.5.

Coastal Water Temperatures

Place Temperature

Stations

Nearby Weather Stations

Station Location Temp. Windchill Dew Point Humidity Wind Precip. Elev Updated Type
                   

Watches & Warnings

There are currently no watches in effect.